createdAt,value
2019-03-08T00:01:37.787Z,20.10
2019-03-08T00:04:04.040Z,20.10
2019-03-08T00:08:58.224Z,20.10
2019-03-08T00:11:24.393Z,20.10
2019-03-08T00:13:50.800Z,20.10
2019-03-08T00:16:16.921Z,20.10
2019-03-08T00:18:42.964Z,20.10
2019-03-08T00:23:35.916Z,20.10
2019-03-08T00:26:01.967Z,20.10
2019-03-08T00:28:28.013Z,20.10
2019-03-08T00:30:54.105Z,20.10
2019-03-08T00:35:46.567Z,20.10
2019-03-08T00:38:12.763Z,20.00
2019-03-08T00:43:05.356Z,20.00
2019-03-08T00:45:31.404Z,20.00
2019-03-08T00:47:57.452Z,20.10
2019-03-08T00:50:23.532Z,20.00
2019-03-08T00:55:16.255Z,20.00
2019-03-08T01:00:16.451Z,20.00
2019-03-08T01:02:42.527Z,20.00
2019-03-08T01:10:06.832Z,20.00
2019-03-08T01:15:00.535Z,20.00
2019-03-08T01:17:26.723Z,19.90
2019-03-08T01:19:52.820Z,20.00
2019-03-08T01:22:19.200Z,19.90
2019-03-08T01:24:45.373Z,19.90
2019-03-08T01:27:11.448Z,19.90
2019-03-08T01:29:37.506Z,19.90
2019-03-08T01:32:05.476Z,19.90
2019-03-08T01:34:31.727Z,19.90
2019-03-08T01:36:57.772Z,19.90
2019-03-08T01:39:24.246Z,19.90
2019-03-08T01:41:50.371Z,19.90
2019-03-08T01:44:16.515Z,19.80
2019-03-08T01:46:42.904Z,19.80
2019-03-08T01:49:09.244Z,19.80
2019-03-08T01:51:35.455Z,19.80
2019-03-08T01:56:28.229Z,19.80
2019-03-08T01:58:54.307Z,19.80
2019-03-08T02:01:20.680Z,19.80
2019-03-08T02:03:46.827Z,19.80
2019-03-08T02:08:41.925Z,19.70
2019-03-08T02:11:09.109Z,19.70
2019-03-08T02:13:35.506Z,19.70
2019-03-08T02:16:01.832Z,19.70
2019-03-08T02:20:54.651Z,19.70
2019-03-08T02:23:20.733Z,19.70
2019-03-08T02:25:47.976Z,19.70
2019-03-08T02:28:14.167Z,19.70
2019-03-08T02:30:40.843Z,19.70
2019-03-08T02:33:07.168Z,19.70
2019-03-08T02:35:33.244Z,19.70
2019-03-08T02:37:59.619Z,19.70
2019-03-08T02:40:29.504Z,19.70
2019-03-08T02:42:58.656Z,19.60
2019-03-08T02:45:25.232Z,19.60
2019-03-08T02:47:51.595Z,19.70
2019-03-08T02:50:17.671Z,19.60
2019-03-08T02:52:43.738Z,19.60
2019-03-08T02:55:09.859Z,19.60
2019-03-08T02:57:35.939Z,19.60
2019-03-08T03:00:06.588Z,19.60
2019-03-08T03:04:59.087Z,19.60
2019-03-08T03:07:25.412Z,19.50
2019-03-08T03:12:18.200Z,19.50
2019-03-08T03:14:44.330Z,19.50
2019-03-08T03:17:10.871Z,19.50
2019-03-08T03:22:03.476Z,19.30
2019-03-08T03:24:29.815Z,19.50
2019-03-08T03:26:56.152Z,19.40
2019-03-08T03:29:22.331Z,19.40
2019-03-08T03:31:48.378Z,19.40
2019-03-08T03:34:14.827Z,19.40
2019-03-08T03:36:41.379Z,19.40
2019-03-08T03:41:34.383Z,19.40
2019-03-08T03:44:00.763Z,19.40
2019-03-08T03:46:26.851Z,19.40
2019-03-08T03:48:52.896Z,19.40
2019-03-08T03:51:18.942Z,19.30
2019-03-08T03:53:45.315Z,19.30
2019-03-08T03:56:11.362Z,19.40
2019-03-08T03:58:37.440Z,19.30
2019-03-08T04:01:05.420Z,19.20
2019-03-08T04:05:58.457Z,19.30
2019-03-08T04:08:24.510Z,19.30
2019-03-08T04:10:51.421Z,19.30
2019-03-08T04:13:17.484Z,19.30
2019-03-08T04:15:43.959Z,19.20
2019-03-08T04:18:10.057Z,19.20
2019-03-08T04:20:37.101Z,19.20
2019-03-08T04:23:03.179Z,19.20
2019-03-08T04:25:29.320Z,19.20
2019-03-08T04:27:55.723Z,19.20
2019-03-08T04:30:22.156Z,19.20
2019-03-08T04:32:48.200Z,19.20
2019-03-08T04:35:14.593Z,19.20
2019-03-08T04:40:09.741Z,19.10
2019-03-08T04:42:36.265Z,19.10
2019-03-08T04:45:04.641Z,19.10
2019-03-08T04:47:31.197Z,19.10
2019-03-08T04:49:57.607Z,19.10
2019-03-08T04:52:23.661Z,19.10
2019-03-08T04:54:49.739Z,19.10
2019-03-08T04:57:15.786Z,19.10
2019-03-08T05:02:08.293Z,19.20
2019-03-08T05:04:34.935Z,19.20
2019-03-08T05:07:01.017Z,19.20
2019-03-08T05:14:19.928Z,19.20
2019-03-08T05:16:46.045Z,19.20
2019-03-08T05:19:12.091Z,19.20
2019-03-08T05:21:38.138Z,19.20
2019-03-08T05:24:05.712Z,19.20
2019-03-08T05:26:31.760Z,19.20
2019-03-08T05:28:57.835Z,19.20
2019-03-08T05:31:23.884Z,19.20
2019-03-08T05:33:49.966Z,19.20
2019-03-08T05:41:09.733Z,19.20
2019-03-08T05:43:36.143Z,19.20
2019-03-08T05:46:02.187Z,19.20
2019-03-08T05:48:28.602Z,19.20
2019-03-08T05:50:54.654Z,19.20
2019-03-08T05:53:20.731Z,19.10
2019-03-08T05:55:46.779Z,19.20
2019-03-08T05:58:12.824Z,19.20
2019-03-08T06:00:39.224Z,19.20
2019-03-08T06:03:05.571Z,19.20
2019-03-08T06:05:31.719Z,19.20
2019-03-08T06:07:57.792Z,19.20
2019-03-08T06:10:31.034Z,19.20
2019-03-08T06:12:59.018Z,19.20
2019-03-08T06:15:25.827Z,19.10
2019-03-08T06:17:53.105Z,19.10
2019-03-08T06:20:19.335Z,19.10
2019-03-08T06:22:45.454Z,19.10
2019-03-08T06:25:12.679Z,19.10
2019-03-08T06:27:38.925Z,19.20
2019-03-08T06:30:08.096Z,19.10
2019-03-08T06:37:28.935Z,19.10
2019-03-08T06:39:55.017Z,19.10
2019-03-08T06:42:21.392Z,19.10
2019-03-08T06:44:47.464Z,19.10
2019-03-08T06:47:13.828Z,19.10
2019-03-08T06:49:40.160Z,19.10
2019-03-08T06:52:06.249Z,19.10
2019-03-08T06:54:32.920Z,19.10
2019-03-08T06:56:59.005Z,19.10
2019-03-08T06:59:27.223Z,19.00
2019-03-08T07:01:53.313Z,19.10
2019-03-08T07:04:19.439Z,19.10
2019-03-08T07:06:45.484Z,19.10
2019-03-08T07:09:11.528Z,19.00
2019-03-08T07:11:37.604Z,19.00
2019-03-08T07:14:04.066Z,19.00
2019-03-08T07:18:56.725Z,19.00
2019-03-08T07:21:24.671Z,19.00
2019-03-08T07:23:52.624Z,19.00
2019-03-08T07:26:32.851Z,19.00
2019-03-08T07:29:04.677Z,19.00
2019-03-08T07:31:35.612Z,19.00
2019-03-08T07:34:10.988Z,19.00
2019-03-08T07:36:45.277Z,19.00
2019-03-08T07:39:33.684Z,19.00
2019-03-08T07:42:04.445Z,19.00
2019-03-08T07:47:03.673Z,19.00
2019-03-08T07:49:46.612Z,19.00
2019-03-08T07:52:14.559Z,19.00
2019-03-08T07:54:42.852Z,19.00
2019-03-08T07:57:25.852Z,19.00
2019-03-08T07:59:54.535Z,19.00
2019-03-08T08:02:22.487Z,19.00
2019-03-08T08:04:52.936Z,19.00
2019-03-08T08:07:20.916Z,19.00
2019-03-08T08:10:00.954Z,19.00
2019-03-08T08:12:45.508Z,19.00
2019-03-08T08:15:14.295Z,19.00
2019-03-08T08:17:54.761Z,18.90
2019-03-08T08:20:28.997Z,18.90
2019-03-08T08:22:56.981Z,18.90
2019-03-08T08:25:37.013Z,18.90
2019-03-08T08:28:05.271Z,18.90
2019-03-08T08:30:36.142Z,18.90
2019-03-08T08:33:22.504Z,18.90
2019-03-08T08:38:21.525Z,18.90
2019-03-08T08:46:00.929Z,18.50
2019-03-08T08:48:28.908Z,18.40
2019-03-08T08:51:08.512Z,18.40
2019-03-08T08:53:53.456Z,18.70
2019-03-08T08:56:30.558Z,18.80
2019-03-08T08:58:58.915Z,18.90
2019-03-08T09:01:43.309Z,19.00
2019-03-08T09:06:45.708Z,19.00
2019-03-08T09:09:19.667Z,19.10
2019-03-08T09:11:52.400Z,19.10
2019-03-08T09:16:49.669Z,19.20
2019-03-08T09:19:17.989Z,19.20
2019-03-08T09:22:03.673Z,19.10
2019-03-08T09:24:37.647Z,19.20
2019-03-08T09:27:08.929Z,19.20
2019-03-08T09:29:52.135Z,19.20
2019-03-08T09:32:23.452Z,19.20
2019-03-08T09:34:51.396Z,19.20
2019-03-08T09:37:31.723Z,19.30
2019-03-08T09:40:16.248Z,19.30
2019-03-08T09:43:00.724Z,19.40
2019-03-08T09:45:29.173Z,19.40
2019-03-08T09:48:13.307Z,19.50
2019-03-08T09:51:00.801Z,19.50
2019-03-08T09:53:32.037Z,19.60
2019-03-08T09:56:03.759Z,19.60
2019-03-08T09:58:32.209Z,19.60
2019-03-08T10:01:04.436Z,19.70
2019-03-08T10:03:32.389Z,19.70
2019-03-08T10:06:00.336Z,19.70
2019-03-08T10:08:28.324Z,19.80
2019-03-08T10:11:14.672Z,19.80
2019-03-08T10:13:45.387Z,19.80
2019-03-08T10:16:13.339Z,19.80
2019-03-08T10:18:47.537Z,19.80
2019-03-08T10:21:32.289Z,19.80
2019-03-08T10:24:12.108Z,19.90
2019-03-08T10:26:40.095Z,19.90
2019-03-08T10:29:26.098Z,19.90
2019-03-08T10:31:54.324Z,19.90
2019-03-08T10:34:25.845Z,19.90
2019-03-08T10:37:10.383Z,20.00
2019-03-08T10:42:21.687Z,20.00
2019-03-08T10:44:50.075Z,20.00
2019-03-08T10:47:18.375Z,20.00
2019-03-08T10:49:55.404Z,20.00
2019-03-08T10:52:30.875Z,19.90
2019-03-08T10:55:15.343Z,20.00
2019-03-08T11:00:15.640Z,20.00
2019-03-08T11:02:49.308Z,20.00
2019-03-08T11:08:09.040Z,20.00
2019-03-08T11:10:38.371Z,20.00
2019-03-08T11:13:22.909Z,20.00
2019-03-08T11:16:07.440Z,20.00
2019-03-08T11:18:35.420Z,20.00
2019-03-08T11:21:06.680Z,20.00
2019-03-08T11:23:47.157Z,20.00
2019-03-08T11:26:15.435Z,20.00
2019-03-08T11:28:49.264Z,20.00
2019-03-08T11:31:23.248Z,20.00
2019-03-08T11:33:51.242Z,20.00
2019-03-08T11:36:19.489Z,20.00
2019-03-08T11:38:49.995Z,20.00
2019-03-08T11:41:18.063Z,20.00
2019-03-08T11:43:52.404Z,20.00
2019-03-08T11:49:06.589Z,20.00
2019-03-08T11:51:50.780Z,20.00
2019-03-08T11:54:25.032Z,20.00
2019-03-08T11:56:56.437Z,20.00
2019-03-08T11:59:23.187Z,20.00
2019-03-08T12:02:07.736Z,20.10
2019-03-08T12:04:52.541Z,20.00
2019-03-08T12:07:26.568Z,20.10
2019-03-08T12:10:11.416Z,20.10
2019-03-08T12:15:32.848Z,20.00
2019-03-08T12:18:18.616Z,20.00
2019-03-08T12:20:46.639Z,20.00
2019-03-08T12:23:23.784Z,20.00
2019-03-08T12:26:08.006Z,20.00
2019-03-08T12:28:38.985Z,20.50
2019-03-08T12:36:23.157Z,20.10
2019-03-08T12:38:51.361Z,20.10
2019-03-08T12:41:22.088Z,20.10
2019-03-08T12:46:35.503Z,20.20
2019-03-08T12:49:09.314Z,20.20
2019-03-08T12:51:37.263Z,20.20
2019-03-08T12:54:08.288Z,20.20
2019-03-08T12:56:36.252Z,20.20
2019-03-08T12:59:16.549Z,20.20
2019-03-08T13:02:01.099Z,20.20
2019-03-08T13:07:14.164Z,20.20
2019-03-08T13:09:49.238Z,20.20
2019-03-08T13:12:15.707Z,20.30
2019-03-08T13:14:41.920Z,20.30
2019-03-08T13:19:34.920Z,20.30
2019-03-08T13:22:01.332Z,20.40
2019-03-08T13:29:21.372Z,20.30
2019-03-08T13:34:13.994Z,20.30
2019-03-08T13:36:40.339Z,20.30
2019-03-08T13:44:00.790Z,20.30
2019-03-08T13:46:28.934Z,20.30
2019-03-08T13:48:55.263Z,20.30
2019-03-08T13:51:22.001Z,20.20
2019-03-08T13:53:48.900Z,20.30
2019-03-08T13:58:41.808Z,20.20
2019-03-08T14:01:07.860Z,20.30
2019-03-08T14:06:00.695Z,20.30
2019-03-08T14:08:27.539Z,20.40
2019-03-08T14:10:53.868Z,20.40
2019-03-08T14:13:21.333Z,20.40
2019-03-08T14:18:14.856Z,20.50
2019-03-08T14:20:41.236Z,20.50
2019-03-08T14:23:07.296Z,20.40
2019-03-08T14:25:33.503Z,20.40
2019-03-08T14:27:59.558Z,20.40
2019-03-08T14:30:31.956Z,20.40
2019-03-08T14:32:58.099Z,20.30
2019-03-08T14:35:26.148Z,20.40
2019-03-08T14:37:56.048Z,20.30
2019-03-08T14:40:23.855Z,20.30
2019-03-08T14:42:58.276Z,20.30
2019-03-08T14:45:29.318Z,20.30
2019-03-08T14:47:55.868Z,20.30
2019-03-08T14:50:22.283Z,20.30
2019-03-08T14:52:48.323Z,20.40
2019-03-08T14:55:14.373Z,20.30
2019-03-08T15:02:35.280Z,20.40
2019-03-08T15:05:10.655Z,20.40
2019-03-08T15:07:29.974Z,20.50
2019-03-08T15:09:56.096Z,20.50
2019-03-08T15:12:22.155Z,20.50
2019-03-08T15:14:48.900Z,20.50
2019-03-08T15:17:16.814Z,20.60
2019-03-08T15:19:42.991Z,20.60
2019-03-08T15:22:09.164Z,20.60
2019-03-08T15:24:38.513Z,20.60
2019-03-08T15:27:04.649Z,20.60
2019-03-08T15:29:31.762Z,20.60
2019-03-08T15:31:58.193Z,20.60
2019-03-08T15:36:50.708Z,20.60
2019-03-08T15:39:17.456Z,20.60
2019-03-08T15:41:43.580Z,20.60
2019-03-08T15:44:09.640Z,20.50
2019-03-08T15:46:36.780Z,20.50
2019-03-08T15:49:03.193Z,20.50
2019-03-08T15:51:29.541Z,20.50
2019-03-08T15:53:55.972Z,20.50
2019-03-08T15:56:22.025Z,20.50
2019-03-08T15:58:48.424Z,20.40
2019-03-08T16:01:14.467Z,20.50
2019-03-08T16:03:40.717Z,20.50
2019-03-08T16:06:07.538Z,20.40
2019-03-08T16:08:35.732Z,20.40
2019-03-08T16:11:01.963Z,20.40
2019-03-08T16:13:28.353Z,20.40
2019-03-08T16:15:54.635Z,20.40
2019-03-08T16:18:21.723Z,20.30
2019-03-08T16:20:47.836Z,20.40
2019-03-08T16:23:14.288Z,20.30
2019-03-08T16:25:46.721Z,20.40
2019-03-08T16:28:10.647Z,20.40
2019-03-08T16:30:43.711Z,20.30
2019-03-08T16:33:33.592Z,20.30
2019-03-08T16:38:39.163Z,20.30
2019-03-08T16:41:19.343Z,20.20
2019-03-08T16:46:27.372Z,20.20
2019-03-08T16:48:59.301Z,20.20
2019-03-08T16:51:36.201Z,20.20
2019-03-08T16:54:04.848Z,20.20
2019-03-08T16:56:44.808Z,20.10
2019-03-08T16:59:29.104Z,20.10
2019-03-08T17:01:59.887Z,20.10
2019-03-08T17:04:27.908Z,20.10
2019-03-08T17:07:07.788Z,20.10
2019-03-08T17:09:38.573Z,20.10
2019-03-08T17:12:23.620Z,20.00
2019-03-08T17:14:51.569Z,20.00
2019-03-08T17:17:28.657Z,20.10
2019-03-08T17:20:02.713Z,20.00
2019-03-08T17:22:36.519Z,19.90
2019-03-08T17:25:12.843Z,20.00
2019-03-08T17:30:24.111Z,20.00
2019-03-08T17:35:35.179Z,20.00
2019-03-08T17:38:05.904Z,20.10
2019-03-08T17:40:50.755Z,20.10
2019-03-08T17:43:19.500Z,20.20
2019-03-08T17:48:49.139Z,20.70
2019-03-08T17:51:33.621Z,20.60
2019-03-08T17:54:07.355Z,20.80
2019-03-08T17:56:35.372Z,20.90
2019-03-08T18:01:50.799Z,21.50
2019-03-08T18:04:24.431Z,21.60
2019-03-08T18:09:24.393Z,21.00
2019-03-08T18:11:52.348Z,22.10
2019-03-08T18:14:36.821Z,22.10
2019-03-08T18:17:21.896Z,21.90
2019-03-08T18:19:49.903Z,21.80
2019-03-08T18:22:35.797Z,21.10
2019-03-08T18:25:08.425Z,20.50
2019-03-08T18:27:42.840Z,20.30
2019-03-08T18:30:19.999Z,20.20
2019-03-08T18:32:54.080Z,20.10
2019-03-08T18:35:39.919Z,20.10
2019-03-08T18:38:11.173Z,20.10
2019-03-08T18:43:34.051Z,20.10
2019-03-08T18:46:18.907Z,20.10
2019-03-08T18:48:55.880Z,20.10
2019-03-08T18:53:54.979Z,20.10
2019-03-08T18:56:25.973Z,20.10
2019-03-08T18:59:03.120Z,20.10
2019-03-08T19:04:02.630Z,20.10
2019-03-08T19:06:30.663Z,20.10
2019-03-08T19:14:33.231Z,20.10
2019-03-08T19:22:26.291Z,20.10
2019-03-08T19:24:54.150Z,20.00
2019-03-08T19:27:34.500Z,20.00
2019-03-08T19:33:02.595Z,20.00
2019-03-08T19:35:49.120Z,20.10
2019-03-08T19:38:17.135Z,20.10
2019-03-08T19:40:45.152Z,20.10
2019-03-08T19:43:26.519Z,20.10
2019-03-08T19:48:41.395Z,20.10
2019-03-08T19:51:18.628Z,20.00
2019-03-08T19:54:04.596Z,20.10
2019-03-08T19:56:35.735Z,20.10
2019-03-08T20:04:18.120Z,20.00
2019-03-08T20:14:38.207Z,20.00
2019-03-08T20:22:19.017Z,20.00
2019-03-08T20:24:49.885Z,20.00
2019-03-08T20:29:52.393Z,20.10
2019-03-08T20:32:20.718Z,20.10
2019-03-08T20:35:04.959Z,20.10
2019-03-08T20:37:33.417Z,20.00
2019-03-08T20:40:03.815Z,19.90
2019-03-08T20:42:34.468Z,20.00
2019-03-08T20:45:02.921Z,19.90
2019-03-08T20:49:58.324Z,19.90
2019-03-08T20:52:24.515Z,19.90
2019-03-08T20:57:17.514Z,19.90
2019-03-08T21:07:05.243Z,19.80
2019-03-08T21:14:24.388Z,19.80
2019-03-08T21:16:50.519Z,19.80
2019-03-08T21:26:37.681Z,19.70
2019-03-08T21:43:44.075Z,19.70
2019-03-08T21:55:58.079Z,19.70
2019-03-08T21:58:24.446Z,19.70
2019-03-08T22:00:50.491Z,19.70
2019-03-08T22:03:16.603Z,19.70
2019-03-08T22:08:16.868Z,19.70
2019-03-08T22:13:05.650Z,19.70
2019-03-08T22:15:32.036Z,19.70
2019-03-08T22:17:58.076Z,19.70
2019-03-08T22:20:24.171Z,19.70
2019-03-08T22:22:50.258Z,19.70
2019-03-08T22:25:16.636Z,19.60
2019-03-08T22:27:42.723Z,19.60
2019-03-08T22:30:15.615Z,19.60
2019-03-08T22:32:41.704Z,19.50
2019-03-08T22:37:34.837Z,19.50
2019-03-08T22:40:01.177Z,19.50
2019-03-08T22:47:20.111Z,19.40
2019-03-08T22:57:06.044Z,19.40
2019-03-08T23:02:06.976Z,19.40
2019-03-08T23:06:59.508Z,19.40
2019-03-08T23:09:25.556Z,19.30
2019-03-08T23:11:53.087Z,19.30
2019-03-08T23:14:19.135Z,19.30
2019-03-08T23:19:11.737Z,19.30
2019-03-08T23:24:04.828Z,19.20
2019-03-08T23:26:32.820Z,19.20
2019-03-08T23:29:03.328Z,19.20
2019-03-08T23:31:34.485Z,19.20
2019-03-08T23:36:28.880Z,19.20
2019-03-08T23:38:55.310Z,19.20
2019-03-08T23:41:21.383Z,19.10
2019-03-08T23:43:47.755Z,19.10
2019-03-08T23:46:14.088Z,19.10
2019-03-08T23:48:40.145Z,19.10
2019-03-08T23:55:59.043Z,19.10
2019-03-08T23:58:25.128Z,19.00
